McCook, NE

05:01 PM CST em 20 de Dezembro de 2014 (GMT -0600)
McCook Municipal | Change Station
CLOSE
Current Station
Aeroporto
Location: McCook,
Altitude: 2579 ft
Estações Meteorológicas Próximas

Elev 2579 ft 40.20 °N, 100.59 °W | Updated 8 minutes ago

Parcialmente Nublado
Parcialmente Nublado
44 °F
Aparente 44 °F
N
0
Vento Variável Vento de Norte

Hoje
Máxima -- | Mínima -- °F
--% Possibilidade de Precip.
Ontem
Máxima -- | Mínima -- °F
Precip. -- pol
8:00 AM 5:19 PM
Quarto minguante, 2% visible
Pressão 30.03 pol
Visibilidade 10.0 milhas
Nuvens Céu Limpo
Ponto de Orvalho 30 °F
Humidade 58%
Chuva 0.00 pol
Altura de Neve Não disponível
UV 0 em vez de 12
Pólen .10 em vez de 12
Qualidade do Ar Não disponível
Flu Activity Não disponível
METAR KMCK 202253Z AUTO 00000KT 10SM CLR 07/M01 A2997 RMK AO2 SLP169 T00671011

More Conditions Fewer Conditions

Pressão 30.03 pol
Visibilidade 10.0 milhas
Nuvens Céu Limpo
Ponto de Orvalho 30 °F
Humidade 58%
Chuva 0.00 pol
Altura de Neve Não disponível
UV 0 em vez de 12
Pólen .10 em vez de 12
Qualidade do Ar Não disponível
Flu Activity Não disponível
METAR KMCK 202253Z AUTO 00000KT 10SM CLR 07/M01 A2997 RMK AO2 SLP169 T00671011

More Conditions Fewer Conditions

10-Day Weather Forecast

Almanac

Astronomia

Dec. 20, 2014 Nascer Pôr
Hora atual
Crepúsculo civil
Crepúsculo náutico
Crepúsculo astronómico
Lua
Comprimento da luz visível
Duração do Dia
Tomorrow will be .
, % of the Moon is Illuminated

Extremos de Hoje

situação na parte mais alta situação na parte mais baixa

Community

WunderPhotos

Upload Photos

1,779,297 fotografias inseridas!

WunderBlogs® & News

Nearby

Qualidade do Ar

  Qualidade do Ar Índice da Q.A. Poluente
Not available.

Altura da Neve

Estação altura Altitude

Actividade Sísmisca

Cidade Distância Mag. Hora & Data
Mínima magnitude apresentada é 2.5.

Temperaturas das Águas Costeiras

Local Temperatura

Estações Meteorológicas Próximas